Santa Paula, California
Current Conditions -  °F | °C
As of 1:55 PM on Monday 20 Oct 2014 (Local Time) from KCMA Reporting Station
Clear Clear  
Wind Chill: 73°   Ceiling: Unl
Heat Index: 73°   Visibility: 10mi
Dew Point: 60°   Wind: 9mph
Humidity: 64%   Direction: 250°WSW
Pressure: 29.9"   Gusts: NA
Location:  34.35°N, 119.05°W
Report Text: KCMA 202055Z 25008KT 10SM CLR 23/16 A2990 RMK AO2 SLP132 T02280156 58018
Loading
Personal Weather Stations






























Interactive Weather Map
Tropical Storm Tracking
New forecast layout! Learn more

10-Day Weather Forecast

Advertisements
Track Severe Weather on mobile